Time;durP1;ratioP1;P1;durP2;ratioP2;P2;SDS_P1;SDS_P2;PMS_P1;PMS_P2;Temp;Humidity;BMP_temperature;BMP_pressure;BME280_temperature;BME280_humidity;BME280_pressure;Samples;Min_cycle;Max_cycle;Signal;HPM_P1;HPM_P2
2024/01/07 00:00:01;;;;;;;4.60;4.20;;;8.20;99.90;;;;;;5009740;28;20501;-65
2024/01/07 00:02:26;;;;;;;4.40;4.00;;;8.20;99.90;;;;;;5003662;28;20046;-65
2024/01/07 00:04:52;;;;;;;4.40;4.00;;;8.20;99.90;;;;;;5006917;28;20547;-66
2024/01/07 00:07:18;;;;;;;5.00;4.60;;;8.20;99.90;;;;;;5010114;28;20037;-64
2024/01/07 00:09:43;;;;;;;7.35;6.60;;;8.20;99.90;;;;;;5010547;28;20025;-64
2024/01/07 00:12:09;;;;;;;6.90;6.15;;;8.20;99.90;;;;;;5010942;28;20075;-65
2024/01/07 00:14:34;;;;;;;5.65;5.15;;;8.20;99.90;;;;;;5011010;28;20025;-64
2024/01/07 00:17:00;;;;;;;5.70;5.20;;;8.20;99.90;;;;;;5014740;28;20417;-65
2024/01/07 00:19:26;;;;;;;5.03;3.92;;;8.20;99.90;;;;;;5012946;28;20036;-65
2024/01/07 00:21:51;;;;;;;5.53;3.92;;;8.20;99.90;;;;;;5008301;28;20033;-65
2024/01/07 00:24:17;;;;;;;4.38;3.97;;;8.20;99.90;;;;;;5014454;28;20458;-65
2024/01/07 00:26:42;;;;;;;6.20;4.20;;;8.20;99.90;;;;;;5016103;28;20032;-65
2024/01/07 00:29:08;;;;;;;4.57;3.70;;;8.20;99.90;;;;;;5017544;28;20037;-66
2024/01/07 00:31:33;;;;;;;8.38;4.45;;;8.20;99.90;;;;;;5011561;28;20494;-69
2024/01/07 00:33:59;;;;;;;3.72;3.00;;;8.20;99.90;;;;;;5011694;28;20092;-65
2024/01/07 00:36:24;;;;;;;3.50;3.10;;;8.30;99.90;;;;;;5014778;28;20430;-65
2024/01/07 00:38:50;;;;;;;3.50;3.15;;;8.30;99.90;;;;;;5000257;28;20037;-65
2024/01/07 00:41:16;;;;;;;3.95;3.17;;;8.30;99.90;;;;;;5002462;28;20060;-65
2024/01/07 00:43:41;;;;;;;4.10;3.65;;;8.30;99.90;;;;;;5015361;28;20058;-64
2024/01/07 00:46:07;;;;;;;3.60;3.30;;;8.30;99.90;;;;;;5005344;28;20033;-64
2024/01/07 00:48:32;;;;;;;3.20;2.88;;;8.30;99.90;;;;;;5012662;28;20585;-65
2024/01/07 00:50:58;;;;;;;4.22;3.30;;;8.30;99.90;;;;;;5009770;28;20057;-65
2024/01/07 00:53:23;;;;;;;4.55;3.28;;;8.30;99.90;;;;;;5010162;28;20104;-65
2024/01/07 00:55:49;;;;;;;6.25;4.43;;;8.40;99.90;;;;;;5011957;28;20025;-65
2024/01/07 00:58:15;;;;;;;6.18;5.20;;;8.30;99.90;;;;;;5010193;28;20034;-66
2024/01/07 01:00:40;;;;;;;3.45;3.15;;;8.40;99.90;;;;;;5009823;28;20030;-65
2024/01/07 01:03:06;;;;;;;3.35;3.03;;;8.30;99.90;;;;;;5011934;28;20188;-66
2024/01/07 01:05:31;;;;;;;6.60;4.43;;;8.40;99.90;;;;;;5009368;28;20033;-66
2024/01/07 01:07:57;;;;;;;3.67;3.10;;;8.30;99.90;;;;;;5011125;28;21216;-66
2024/01/07 01:10:22;;;;;;;3.63;2.95;;;8.30;99.90;;;;;;5009870;28;20022;-67
2024/01/07 01:12:48;;;;;;;3.67;3.38;;;8.30;99.90;;;;;;5012189;28;20498;-66
2024/01/07 01:15:16;;;;;;;2.78;2.58;;;8.30;99.90;;;;;;5013116;28;20092;-66
2024/01/07 01:17:42;;;;;;;4.15;3.28;;;8.30;99.90;;;;;;5011723;28;20033;-66
2024/01/07 01:20:08;;;;;;;12.05;10.77;;;8.30;99.90;;;;;;5014932;28;20434;-66
2024/01/07 01:22:34;;;;;;;6.72;5.15;;;8.30;99.90;;;;;;5015816;28;20121;-66
2024/01/07 01:25:00;;;;;;;4.43;3.28;;;8.40;99.90;;;;;;5009689;28;20029;-66
2024/01/07 01:27:25;;;;;;;3.17;2.88;;;8.30;99.90;;;;;;5007753;28;20246;-66
2024/01/07 01:29:51;;;;;;;3.22;2.72;;;8.30;99.90;;;;;;5013135;28;20137;-67
2024/01/07 01:32:17;;;;;;;2.90;2.60;;;8.30;99.90;;;;;;5016237;28;20078;-66
2024/01/07 01:34:42;;;;;;;3.38;3.08;;;8.40;99.90;;;;;;5014336;28;20040;-66
2024/01/07 01:37:09;;;;;;;3.38;3.03;;;8.40;99.90;;;;;;5010690;28;20577;-66
2024/01/07 01:39:34;;;;;;;3.65;3.13;;;8.40;99.90;;;;;;5011766;28;20033;-67
2024/01/07 01:42:00;;;;;;;3.83;3.25;;;8.40;99.90;;;;;;5012340;28;20072;-67
2024/01/07 01:44:29;;;;;;;3.25;2.95;;;8.40;99.90;;;;;;5013970;28;20039;-66
2024/01/07 01:46:56;;;;;;;5.50;4.07;;;8.40;99.90;;;;;;5010440;28;20042;-66
2024/01/07 01:49:21;;;;;;;7.15;4.05;;;8.40;99.90;;;;;;5006713;28;20029;-66
2024/01/07 01:51:49;;;;;;;5.72;3.28;;;8.40;99.90;;;;;;5011333;28;20029;-66
2024/01/07 01:54:15;;;;;;;5.53;4.25;;;8.40;99.90;;;;;;5010698;28;20507;-66
2024/01/07 01:56:40;;;;;;;11.38;6.97;;;8.40;99.90;;;;;;5012929;28;20030;-66
2024/01/07 01:59:07;;;;;;;12.38;7.80;;;8.40;99.90;;;;;;5010650;28;20068;-66
2024/01/07 02:01:32;;;;;;;6.22;5.63;;;8.40;99.90;;;;;;5016052;28;20064;-66
2024/01/07 02:03:58;;;;;;;15.18;11.25;;;8.40;99.90;;;;;;5019964;28;20151;-66
2024/01/07 02:06:24;;;;;;;4.38;3.97;;;8.40;99.90;;;;;;5013302;28;20044;-66
2024/01/07 02:08:50;;;;;;;4.07;3.67;;;8.40;99.90;;;;;;5002055;28;20041;-66
2024/01/07 02:11:17;;;;;;;3.50;3.20;;;8.40;99.90;;;;;;5012953;28;20030;-66
2024/01/07 02:13:43;;;;;;;3.60;3.25;;;8.40;99.90;;;;;;5012720;28;20041;-67
2024/01/07 02:16:09;;;;;;;3.80;3.00;;;8.40;99.90;;;;;;5010262;28;20030;-67
2024/01/07 02:18:35;;;;;;;3.88;3.08;;;8.40;99.90;;;;;;5011929;28;20041;-67
2024/01/07 02:21:00;;;;;;;4.25;3.17;;;8.40;99.90;;;;;;5012358;28;20463;-66
2024/01/07 02:23:26;;;;;;;3.28;2.97;;;8.40;99.90;;;;;;5011612;28;20125;-66
2024/01/07 02:25:51;;;;;;;3.10;2.70;;;8.40;99.90;;;;;;5018441;28;20043;-67
2024/01/07 02:28:17;;;;;;;3.80;2.63;;;8.40;99.90;;;;;;5012187;28;20041;-67
2024/01/07 02:30:43;;;;;;;3.28;2.97;;;8.40;99.90;;;;;;5014543;28;20152;-66
2024/01/07 02:33:08;;;;;;;4.32;3.50;;;8.30;99.90;;;;;;5011585;28;20100;-65
2024/01/07 02:35:34;;;;;;;4.10;3.63;;;8.30;99.90;;;;;;4998415;28;20407;-65
2024/01/07 02:37:59;;;;;;;3.88;3.25;;;8.30;99.90;;;;;;5014196;28;20605;-65
2024/01/07 02:40:25;;;;;;;3.05;2.75;;;8.30;99.90;;;;;;5014837;28;20034;-65
2024/01/07 02:42:51;;;;;;;4.65;3.28;;;8.30;99.90;;;;;;5013907;28;20052;-63
2024/01/07 02:45:16;;;;;;;3.60;3.20;;;8.30;99.90;;;;;;5015485;28;20028;-65
2024/01/07 02:47:42;;;;;;;4.50;3.88;;;8.20;99.90;;;;;;5012423;28;20080;-66
2024/01/07 02:50:08;;;;;;;6.53;4.97;;;8.20;99.90;;;;;;5015599;28;20347;-66
2024/01/07 02:52:33;;;;;;;13.25;8.60;;;8.20;99.90;;;;;;5015080;28;20076;-64
2024/01/07 02:55:01;;;;;;;10.82;8.13;;;8.20;99.90;;;;;;5012789;28;20071;-65
2024/01/07 02:57:27;;;;;;;6.13;5.15;;;8.20;99.90;;;;;;5011214;28;20048;-64
2024/01/07 02:59:53;;;;;;;4.05;3.70;;;8.20;99.90;;;;;;5015729;28;20026;-65
2024/01/07 03:02:18;;;;;;;3.33;3.03;;;8.20;99.90;;;;;;5010986;28;20033;-64
2024/01/07 03:04:44;;;;;;;3.45;3.13;;;8.20;99.90;;;;;;5013963;28;20026;-65
2024/01/07 03:07:09;;;;;;;3.13;2.83;;;8.20;99.90;;;;;;5015158;28;20541;-65
2024/01/07 03:09:35;;;;;;;2.78;2.58;;;8.20;99.90;;;;;;5012855;28;20091;-66
2024/01/07 03:12:01;;;;;;;4.13;3.60;;;8.20;99.90;;;;;;4999897;28;20038;-65
2024/01/07 03:14:26;;;;;;;3.90;3.33;;;8.20;99.90;;;;;;5015034;28;20108;-66
2024/01/07 03:16:52;;;;;;;10.95;9.25;;;8.30;99.90;;;;;;5008271;28;20033;-66
2024/01/07 03:19:18;;;;;;;181.10;124.53;;;8.30;99.90;;;;;;5019511;28;20116;-65
2024/01/07 03:21:43;;;;;;;236.68;155.25;;;8.30;99.90;;;;;;5012046;28;20501;-65
2024/01/07 03:24:10;;;;;;;51.45;35.90;;;8.30;99.90;;;;;;5011429;28;20046;-65
2024/01/07 03:26:35;;;;;;;118.32;74.95;;;8.30;99.90;;;;;;5011196;28;20497;-65
2024/01/07 03:29:02;;;;;;;31.83;22.73;;;8.30;99.90;;;;;;5011714;28;20037;-66
2024/01/07 03:31:28;;;;;;;29.65;20.23;;;8.30;99.90;;;;;;5006099;28;20101;-66
2024/01/07 03:33:53;;;;;;;30.63;22.70;;;8.30;99.90;;;;;;5008540;28;20099;-66
2024/01/07 03:36:19;;;;;;;128.70;82.88;;;8.20;99.90;;;;;;5008071;28;20072;-66
2024/01/07 03:38:45;;;;;;;61.85;40.97;;;8.20;99.90;;;;;;5007413;28;20041;-67
2024/01/07 03:41:19;;;;;;;196.77;132.88;;;8.20;99.90;;;;;;5004627;28;20049;-66
2024/01/07 03:43:47;;;;;;;211.05;140.05;;;8.20;99.90;;;;;;5007272;28;20473;-66
2024/01/07 03:46:12;;;;;;;300.10;208.40;;;8.20;99.90;;;;;;5006920;28;20033;-66
2024/01/07 03:48:38;;;;;;;266.00;178.70;;;8.30;99.90;;;;;;5008235;28;20041;-67
2024/01/07 03:51:04;;;;;;;172.63;121.20;;;8.30;99.90;;;;;;5004780;28;20029;-65
2024/01/07 03:53:30;;;;;;;75.40;51.92;;;8.30;99.90;;;;;;5007423;28;20114;-66
2024/01/07 03:55:55;;;;;;;46.75;33.83;;;8.30;99.90;;;;;;5008607;28;20109;-66
2024/01/07 03:58:21;;;;;;;31.48;23.80;;;8.30;99.90;;;;;;5007870;28;20041;-66
2024/01/07 04:00:46;;;;;;;48.72;33.38;;;8.30;99.90;;;;;;5007722;28;20029;-65
2024/01/07 04:03:12;;;;;;;49.88;37.30;;;8.30;99.90;;;;;;5008767;28;20042;-66
2024/01/07 04:05:37;;;;;;;12.18;10.63;;;8.40;99.90;;;;;;5005407;28;20071;-66
2024/01/07 04:08:04;;;;;;;6.53;5.13;;;8.40;99.90;;;;;;5005892;28;20057;-66
2024/01/07 04:10:29;;;;;;;4.50;4.10;;;8.40;99.90;;;;;;5005488;28;20429;-66
2024/01/07 04:12:55;;;;;;;4.72;3.97;;;8.40;99.90;;;;;;5009411;28;20045;-66
2024/01/07 04:15:21;;;;;;;2.85;2.63;;;8.40;99.90;;;;;;5007688;28;20100;-66
2024/01/07 04:17:47;;;;;;;7.28;6.68;;;8.40;99.90;;;;;;5007057;28;20033;-66
2024/01/07 04:20:14;;;;;;;3.03;2.80;;;8.30;99.90;;;;;;5006182;28;20478;-66
2024/01/07 04:22:39;;;;;;;3.63;3.28;;;8.40;99.90;;;;;;5011009;28;20048;-66
2024/01/07 04:25:08;;;;;;;5.60;5.05;;;8.40;99.90;;;;;;5007544;28;20030;-63
2024/01/07 04:27:34;;;;;;;8.13;7.32;;;8.40;99.90;;;;;;5007719;28;20028;-65
2024/01/07 04:30:00;;;;;;;3.65;3.30;;;8.40;99.90;;;;;;5007881;28;20037;-65
2024/01/07 04:32:26;;;;;;;8.52;7.72;;;8.40;99.90;;;;;;5014553;28;20057;-65
2024/01/07 04:34:52;;;;;;;3.85;3.55;;;8.40;99.90;;;;;;5015455;28;20762;-66
2024/01/07 04:37:17;;;;;;;4.07;3.78;;;8.40;99.90;;;;;;5011626;28;20057;-65
2024/01/07 04:39:43;;;;;;;3.38;3.08;;;8.50;99.90;;;;;;5012484;28;20095;-65
2024/01/07 04:42:08;;;;;;;5.35;4.03;;;8.50;99.90;;;;;;5012383;28;20053;-64
2024/01/07 04:44:34;;;;;;;4.78;3.13;;;8.50;99.90;;;;;;5016470;28;20045;-64
2024/01/07 04:47:00;;;;;;;4.28;3.88;;;8.50;99.90;;;;;;5014905;28;20035;-64
2024/01/07 04:49:26;;;;;;;8.73;7.82;;;8.50;99.90;;;;;;5014620;28;20144;-64
2024/01/07 04:51:51;;;;;;;4.07;3.60;;;8.50;99.90;;;;;;5007962;28;20041;-64
2024/01/07 04:54:18;;;;;;;3.88;3.53;;;8.50;99.90;;;;;;5011722;28;20094;-66
2024/01/07 04:56:44;;;;;;;4.53;4.13;;;8.50;99.90;;;;;;5011669;28;20049;-66
2024/01/07 04:59:09;;;;;;;6.03;5.53;;;8.50;99.90;;;;;;5012220;28;20040;-65
2024/01/07 05:01:35;;;;;;;3.80;3.50;;;8.50;99.90;;;;;;5010076;28;20034;-66
2024/01/07 05:04:02;;;;;;;7.00;6.30;;;8.50;99.90;;;;;;5015808;28;20049;-65
2024/01/07 05:06:27;;;;;;;4.15;3.75;;;8.50;99.90;;;;;;5014929;28;20041;-65
2024/01/07 05:08:53;;;;;;;24.40;20.90;;;8.50;99.90;;;;;;4997490;28;20033;-65
2024/01/07 05:11:19;;;;;;;9.90;8.18;;;8.50;99.90;;;;;;5013983;28;20021;-65
2024/01/07 05:13:44;;;;;;;5.22;4.72;;;8.50;99.90;;;;;;5013863;28;20402;-66
2024/01/07 05:16:20;;;;;;;5.22;4.75;;;8.50;99.90;;;;;;5013203;28;20092;-65
2024/01/07 05:18:48;;;;;;;6.55;5.93;;;8.50;99.90;;;;;;5006029;28;20100;-66
2024/01/07 05:21:15;;;;;;;6.13;5.10;;;8.50;99.90;;;;;;5016125;28;20013;-66
2024/01/07 05:23:41;;;;;;;3.72;3.40;;;8.40;99.90;;;;;;5012144;28;20073;-67
2024/01/07 05:26:07;;;;;;;3.25;2.95;;;8.40;99.90;;;;;;5012594;28;20037;-66
2024/01/07 05:28:32;;;;;;;6.47;5.88;;;8.40;99.90;;;;;;5012813;28;20060;-66
2024/01/07 05:30:58;;;;;;;5.05;2.70;;;8.40;99.90;;;;;;5015563;28;20026;-66
2024/01/07 05:33:23;;;;;;;3.33;3.03;;;8.40;99.90;;;;;;5017316;28;20632;-66
2024/01/07 05:35:49;;;;;;;4.93;4.40;;;8.40;99.90;;;;;;5010366;28;21264;-66
2024/01/07 05:38:14;;;;;;;5.68;5.13;;;8.40;99.90;;;;;;5017107;28;20072;-66
2024/01/07 05:40:40;;;;;;;12.32;11.10;;;8.40;99.90;;;;;;5018296;28;20040;-66
2024/01/07 05:43:05;;;;;;;8.77;7.97;;;8.40;99.90;;;;;;5019801;28;20041;-66
2024/01/07 05:45:31;;;;;;;3.83;3.45;;;8.40;99.90;;;;;;5018837;28;20095;-66
2024/01/07 05:47:56;;;;;;;5.22;4.72;;;8.40;99.90;;;;;;5013541;28;20609;-66
2024/01/07 05:50:22;;;;;;;3.22;2.92;;;8.40;99.90;;;;;;5019294;28;20052;-66
2024/01/07 05:52:48;;;;;;;5.15;4.57;;;8.40;99.90;;;;;;5013214;28;20029;-66
2024/01/07 05:55:14;;;;;;;4.75;4.20;;;8.40;99.90;;;;;;5017200;28;20042;-66
2024/01/07 05:57:39;;;;;;;6.22;5.10;;;8.40;99.90;;;;;;5019324;28;20313;-66
2024/01/07 06:00:05;;;;;;;6.15;5.55;;;8.40;99.90;;;;;;5015864;28;20033;-66
2024/01/07 06:02:31;;;;;;;6.45;5.85;;;8.40;99.90;;;;;;5013774;28;20061;-66
2024/01/07 06:04:56;;;;;;;4.78;4.28;;;8.40;99.90;;;;;;5014838;28;20029;-66
2024/01/07 06:07:22;;;;;;;14.07;11.75;;;8.40;99.90;;;;;;5013384;28;20044;-66
2024/01/07 06:09:48;;;;;;;49.55;35.13;;;8.40;99.90;;;;;;5014737;28;20047;-64
2024/01/07 06:12:13;;;;;;;7.03;6.15;;;8.40;99.90;;;;;;5016997;28;20052;-65
2024/01/07 06:14:39;;;;;;;11.60;7.53;;;8.40;99.90;;;;;;5013849;28;20047;-65
2024/01/07 06:17:05;;;;;;;4.80;4.40;;;8.30;99.90;;;;;;5015657;28;20053;-65
2024/01/07 06:19:30;;;;;;;3.78;2.97;;;8.30;99.90;;;;;;5015187;28;20087;-65
2024/01/07 06:21:56;;;;;;;7.35;6.65;;;8.30;99.90;;;;;;5010143;28;20037;-65
2024/01/07 06:24:22;;;;;;;8.77;8.07;;;8.40;99.90;;;;;;5018312;28;20041;-65
2024/01/07 06:26:47;;;;;;;3.35;2.85;;;8.40;99.90;;;;;;4995958;28;20061;-66
2024/01/07 06:29:13;;;;;;;2.17;1.98;;;8.40;99.90;;;;;;5014067;28;20043;-66
2024/01/07 06:31:45;;;;;;;2.38;2.15;;;8.30;99.90;;;;;;5016009;28;20790;-65
2024/01/07 06:34:13;;;;;;;;;;;8.30;99.90;;;;;;5015786;28;20049;-66
2024/01/07 06:36:41;;;;;;;2.17;1.60;;;8.30;99.90;;;;;;5013305;28;19917;-65
2024/01/07 06:39:07;;;;;;;1.92;1.58;;;8.20;99.90;;;;;;5014248;28;20049;-66
2024/01/07 06:41:34;;;;;;;3.70;2.03;;;8.30;99.90;;;;;;5014728;28;20072;-65
2024/01/07 06:43:59;;;;;;;3.05;1.52;;;8.30;99.90;;;;;;5010170;28;20045;-65
2024/01/07 06:46:25;;;;;;;1.85;1.75;;;8.30;99.90;;;;;;5016578;28;20037;-66
2024/01/07 06:48:51;;;;;;;3.63;2.30;;;8.20;99.90;;;;;;5016957;28;20048;-65
2024/01/07 06:51:16;;;;;;;2.75;1.98;;;8.30;99.90;;;;;;5012589;28;20052;-66
2024/01/07 06:53:42;;;;;;;2.53;1.83;;;8.30;99.90;;;;;;5019896;28;20037;-66
2024/01/07 06:56:07;;;;;;;3.00;1.58;;;8.30;99.90;;;;;;5009521;28;20383;-66
2024/01/07 06:58:33;;;;;;;8.85;6.88;;;8.30;99.90;;;;;;5010167;28;20107;-67
2024/01/07 07:00:58;;;;;;;44.35;39.90;;;8.30;99.90;;;;;;5009733;28;20040;-65
2024/01/07 07:03:24;;;;;;;7.10;6.35;;;8.30;99.90;;;;;;5010457;28;20043;-65
2024/01/07 07:05:49;;;;;;;3.33;2.85;;;8.30;99.90;;;;;;5014976;28;20159;-65
2024/01/07 07:08:16;;;;;;;1.67;1.58;;;8.30;99.90;;;;;;5015728;28;20657;-65
2024/01/07 07:10:41;;;;;;;2.40;1.80;;;8.30;99.90;;;;;;5015193;28;20579;-65
2024/01/07 07:13:07;;;;;;;3.88;2.47;;;8.30;99.90;;;;;;5014992;28;20041;-65
2024/01/07 07:15:33;;;;;;;2.53;1.75;;;8.30;99.90;;;;;;5016768;28;20037;-66
2024/01/07 07:17:58;;;;;;;2.03;1.85;;;8.30;99.90;;;;;;5014346;28;20732;-64
2024/01/07 07:20:24;;;;;;;3.10;2.80;;;8.30;99.90;;;;;;5011619;28;20152;-65
2024/01/07 07:22:50;;;;;;;2.78;2.03;;;8.20;99.90;;;;;;5010443;28;20061;-65
2024/01/07 07:25:16;;;;;;;2.75;2.08;;;8.20;99.90;;;;;;5011709;28;20503;-64
2024/01/07 07:27:41;;;;;;;2.53;2.08;;;8.20;99.90;;;;;;5013360;28;20033;-65
2024/01/07 07:30:07;;;;;;;4.22;2.15;;;8.20;99.90;;;;;;5011390;28;20044;-65
2024/01/07 07:32:33;;;;;;;2.25;2.05;;;8.20;99.90;;;;;;5015556;28;20026;-66
2024/01/07 07:34:59;;;;;;;3.55;2.25;;;8.20;99.90;;;;;;5011592;28;20739;-65
2024/01/07 07:37:25;;;;;;;4.82;3.08;;;8.20;99.90;;;;;;5015017;28;20041;-67
2024/01/07 07:39:51;;;;;;;3.10;2.72;;;8.20;99.90;;;;;;5016599;28;20058;-66
2024/01/07 07:42:16;;;;;;;2.60;1.88;;;8.20;99.90;;;;;;5011910;28;20041;-67
2024/01/07 07:44:42;;;;;;;2.47;2.15;;;8.30;99.90;;;;;;5008465;28;20862;-67
2024/01/07 07:47:11;;;;;;;3.30;2.58;;;8.20;99.90;;;;;;5010663;28;20603;-67
2024/01/07 07:49:39;;;;;;;2.65;2.05;;;8.20;99.90;;;;;;5013059;28;20033;-68
2024/01/07 07:52:06;;;;;;;6.47;5.78;;;8.20;99.90;;;;;;5012485;28;23851;-68
2024/01/07 07:54:32;;;;;;;6.78;6.07;;;8.10;99.90;;;;;;5010037;28;21697;-67
2024/01/07 07:56:58;;;;;;;8.07;5.90;;;8.20;99.90;;;;;;5013146;28;20591;-68
2024/01/07 07:59:23;;;;;;;4.90;4.05;;;8.20;99.90;;;;;;5012889;28;20029;-70
2024/01/07 08:01:49;;;;;;;10.18;9.18;;;8.20;99.90;;;;;;5012301;28;20030;-69
2024/01/07 08:04:15;;;;;;;5.15;3.78;;;8.20;99.90;;;;;;5008990;28;20041;-65
2024/01/07 08:06:42;;;;;;;3.97;3.15;;;8.20;99.90;;;;;;5012186;28;20026;-66
2024/01/07 08:09:08;;;;;;;11.75;8.00;;;8.30;99.90;;;;;;5014943;28;20036;-66
2024/01/07 08:11:34;;;;;;;3.95;2.90;;;8.30;99.90;;;;;;5013090;28;20034;-66
2024/01/07 08:14:01;;;;;;;2.10;1.90;;;8.30;99.90;;;;;;5013779;28;20470;-66
2024/01/07 08:16:27;;;;;;;2.50;2.05;;;8.20;99.90;;;;;;5012924;28;20378;-65
2024/01/07 08:18:56;;;;;;;3.42;2.50;;;8.20;99.90;;;;;;5017805;28;20036;-67
2024/01/07 08:21:22;;;;;;;2.45;2.25;;;8.20;99.90;;;;;;5013901;28;20033;-66
2024/01/07 08:23:49;;;;;;;3.13;2.83;;;8.20;99.90;;;;;;5015215;28;20026;-70
2024/01/07 08:26:20;;;;;;;2.50;2.30;;;8.20;99.90;;;;;;5011653;28;20143;-67
2024/01/07 08:28:46;;;;;;;3.17;2.83;;;8.20;99.90;;;;;;5011318;28;20445;-67
2024/01/07 08:31:12;;;;;;;2.22;1.80;;;8.20;99.90;;;;;;5013552;28;20033;-67
2024/01/07 08:33:38;;;;;;;1.42;1.25;;;8.20;99.90;;;;;;5015771;28;20029;-67
2024/01/07 08:36:04;;;;;;;2.33;1.92;;;8.20;99.90;;;;;;5011866;28;20415;-67
2024/01/07 08:38:30;;;;;;;2.33;1.60;;;8.20;99.90;;;;;;5008291;28;20030;-68
2024/01/07 08:40:55;;;;;;;1.90;1.63;;;8.20;99.90;;;;;;5010854;28;20046;-68
2024/01/07 08:43:21;;;;;;;2.85;1.75;;;8.20;99.90;;;;;;5011139;28;20053;-68
2024/01/07 08:45:46;;;;;;;2.60;1.77;;;8.20;99.90;;;;;;5011815;28;20056;-67
2024/01/07 08:48:12;;;;;;;4.68;1.90;;;8.20;99.90;;;;;;5014340;28;20467;-68
2024/01/07 08:50:38;;;;;;;4.38;2.58;;;8.20;99.90;;;;;;5010168;28;20453;-68
2024/01/07 08:53:04;;;;;;;5.78;2.25;;;8.20;99.90;;;;;;5008434;28;20037;-69
2024/01/07 08:55:30;;;;;;;4.03;2.45;;;8.20;99.90;;;;;;5010127;28;20056;-70
2024/01/07 08:57:56;;;;;;;2.83;2.38;;;8.20;99.90;;;;;;5015737;28;20033;-68
2024/01/07 09:00:25;;;;;;;7.53;5.55;;;8.20;99.90;;;;;;5014643;28;20571;-66
2024/01/07 09:02:51;;;;;;;3.47;2.47;;;8.20;99.90;;;;;;5012592;28;20025;-66
2024/01/07 09:05:17;;;;;;;7.68;3.65;;;8.20;99.90;;;;;;5010493;28;20026;-65
2024/01/07 09:07:43;;;;;;;4.95;4.45;;;8.10;99.90;;;;;;5014161;28;20045;-65
2024/01/07 09:10:10;;;;;;;7.70;5.93;;;8.10;99.90;;;;;;5015405;28;20065;-66
2024/01/07 09:12:37;;;;;;;15.10;8.05;;;8.10;99.90;;;;;;5012479;28;20021;-66
2024/01/07 09:15:04;;;;;;;4.05;3.13;;;8.10;99.90;;;;;;5013234;28;20088;-66
2024/01/07 09:17:31;;;;;;;3.60;2.42;;;8.10;99.90;;;;;;5003544;28;20029;-65
2024/01/07 09:19:57;;;;;;;3.92;2.88;;;8.10;99.90;;;;;;5015180;28;20122;-65
2024/01/07 09:22:22;;;;;;;9.30;6.82;;;8.10;99.90;;;;;;5007545;28;20545;-65
2024/01/07 09:24:48;;;;;;;5.78;3.78;;;8.10;99.90;;;;;;5012088;28;20370;-65
2024/01/07 09:27:14;;;;;;;4.82;3.40;;;8.10;99.90;;;;;;5013574;28;20026;-65
2024/01/07 09:29:39;;;;;;;6.80;5.05;;;8.10;99.90;;;;;;5007656;28;20026;-65
2024/01/07 09:32:05;;;;;;;15.23;10.10;;;8.10;99.90;;;;;;5000914;28;20498;-64
2024/01/07 09:34:31;;;;;;;6.53;4.40;;;8.10;99.90;;;;;;5011524;28;20045;-64
2024/01/07 09:36:57;;;;;;;8.43;6.38;;;8.20;99.90;;;;;;4988399;28;20025;-65
2024/01/07 09:39:22;;;;;;;4.93;3.58;;;8.20;99.90;;;;;;5013043;28;20064;-65
2024/01/07 09:41:48;;;;;;;6.80;5.43;;;8.20;99.90;;;;;;4989622;28;20506;-65
2024/01/07 09:44:14;;;;;;;7.75;6.00;;;8.20;99.90;;;;;;5009072;28;20103;-66
2024/01/07 09:46:41;;;;;;;9.20;6.65;;;8.20;99.90;;;;;;5008485;28;20394;-66
2024/01/07 09:49:07;;;;;;;3.63;3.30;;;8.20;99.90;;;;;;5010525;28;20041;-66
2024/01/07 09:51:36;;;;;;;19.83;17.73;;;8.20;99.90;;;;;;5010956;28;20077;-66
2024/01/07 09:54:04;;;;;;;7.70;5.90;;;8.20;99.90;;;;;;5013604;28;20033;-68
2024/01/07 09:56:41;;;;;;;137.27;87.30;;;8.20;99.90;;;;;;5007492;28;20030;-66
2024/01/07 09:59:08;;;;;;;16.58;12.70;;;8.20;99.90;;;;;;5009243;28;20029;-67
2024/01/07 10:01:35;;;;;;;13.55;8.18;;;8.20;99.90;;;;;;5012501;28;20033;-67
2024/01/07 10:04:01;;;;;;;16.27;12.07;;;8.20;99.90;;;;;;5009214;28;20128;-66
2024/01/07 10:06:27;;;;;;;16.88;14.38;;;8.20;99.90;;;;;;5004116;28;20048;-65
2024/01/07 10:08:52;;;;;;;7.43;6.45;;;8.20;99.90;;;;;;5008388;28;20034;-65
2024/01/07 10:11:18;;;;;;;12.52;8.60;;;8.20;99.90;;;;;;5011801;28;20038;-65
2024/01/07 10:13:47;;;;;;;13.70;10.68;;;8.20;99.90;;;;;;5006163;28;20021;-66
2024/01/07 10:16:14;;;;;;;3.70;3.40;;;8.30;99.90;;;;;;5008491;28;20087;-66
2024/01/07 10:18:39;;;;;;;7.20;5.82;;;8.30;99.90;;;;;;5014608;28;20164;-64
2024/01/07 10:21:07;;;;;;;19.27;15.48;;;8.20;99.90;;;;;;5015563;28;20033;-64
2024/01/07 10:23:32;;;;;;;20.48;15.93;;;8.20;99.90;;;;;;5008656;28;20080;-64
2024/01/07 10:25:58;;;;;;;8.63;7.20;;;8.20;99.90;;;;;;5012675;28;20482;-64
2024/01/07 10:28:24;;;;;;;2.33;2.13;;;8.20;99.90;;;;;;5015319;28;20836;-65
2024/01/07 10:30:50;;;;;;;2.63;2.42;;;8.20;99.90;;;;;;5013135;28;20025;-67
2024/01/07 10:33:19;;;;;;;4.88;3.38;;;8.20;99.90;;;;;;5013587;28;20029;-66
2024/01/07 10:35:51;;;;;;;3.58;3.10;;;8.30;99.90;;;;;;5011805;28;20041;-66
2024/01/07 10:38:16;;;;;;;4.05;2.90;;;8.30;99.90;;;;;;5010900;28;20116;-65
2024/01/07 10:40:45;;;;;;;1.85;1.33;;;8.30;99.90;;;;;;5016562;28;20025;-65
2024/01/07 10:43:12;;;;;;;3.08;2.78;;;8.20;99.90;;;;;;5011907;28;20037;-65
2024/01/07 10:45:37;;;;;;;1.30;1.10;;;8.20;99.90;;;;;;5014829;28;20021;-64
2024/01/07 10:48:07;;;;;;;4.75;4.25;;;8.20;99.90;;;;;;5013905;28;20040;-64
2024/01/07 10:50:33;;;;;;;7.50;5.88;;;8.20;99.90;;;;;;5014086;28;20745;-64
2024/01/07 10:53:07;;;;;;;4.63;3.88;;;8.20;99.90;;;;;;5011713;28;20417;-64
2024/01/07 10:55:38;;;;;;;3.65;3.35;;;8.20;99.90;;;;;;5011177;28;20021;-64
2024/01/07 10:58:05;;;;;;;2.03;1.40;;;8.20;99.90;;;;;;5013633;28;20548;-65
2024/01/07 11:00:31;;;;;;;4.60;2.25;;;8.20;99.90;;;;;;5014270;28;20068;-64
2024/01/07 11:03:19;;;;;;;1.60;1.50;;;8.20;99.90;;;;;;5009714;28;20084;-66
2024/01/07 11:06:14;;;;;;;1.60;1.13;;;8.20;99.90;;;;;;5014563;28;20045;-66
2024/01/07 11:08:55;;;;;;;4.03;3.63;;;8.20;99.90;;;;;;5012552;28;20388;-66
2024/01/07 11:11:42;;;;;;;6.93;3.63;;;8.20;99.90;;;;;;5008478;28;20029;-67
2024/01/07 11:14:52;;;;;;;3.35;2.78;;;8.30;99.90;;;;;;5010741;28;20041;-66
2024/01/07 11:17:38;;;;;;;13.10;5.63;;;8.40;99.90;;;;;;4918811;29;20246;-66
2024/01/07 11:20:22;;;;;;;8.63;7.10;;;8.40;99.90;;;;;;4997868;28;20045;-67
2024/01/07 11:22:48;;;;;;;7.18;5.00;;;8.40;99.90;;;;;;5009956;28;20041;-66
2024/01/07 11:25:33;;;;;;;6.35;4.68;;;8.40;99.90;;;;;;5014996;28;20136;-66
2024/01/07 11:28:01;;;;;;;88.55;45.58;;;8.40;99.90;;;;;;5014358;28;20030;-66
2024/01/07 11:30:27;;;;;;;15.25;9.85;;;8.40;99.90;;;;;;5013338;28;20117;-66
2024/01/07 11:33:00;;;;;;;26.02;23.30;;;8.40;99.90;;;;;;4995606;28;20041;-66
2024/01/07 11:35:56;;;;;;;3.75;2.80;;;8.50;99.90;;;;;;4996350;28;20029;-66
2024/01/07 11:38:21;;;;;;;2.10;1.58;;;8.50;99.90;;;;;;5013982;28;20030;-64
2024/01/07 11:40:50;;;;;;;11.90;8.88;;;8.50;99.90;;;;;;5011214;28;20049;-65
2024/01/07 11:43:15;;;;;;;60.92;41.58;;;8.50;99.90;;;;;;5016116;28;20061;-66
2024/01/07 11:45:41;;;;;;;14.65;13.05;;;8.50;99.90;;;;;;5014420;28;20502;-66
2024/01/07 11:48:07;;;;;;;5.40;4.70;;;8.50;99.90;;;;;;5009798;28;20030;-65
2024/01/07 11:50:32;;;;;;;4.70;4.30;;;8.50;99.90;;;;;;5011287;28;20439;-65
2024/01/07 11:52:58;;;;;;;6.10;5.32;;;8.40;99.90;;;;;;5012153;28;20021;-66
2024/01/07 11:55:25;;;;;;;3.33;3.03;;;8.40;99.90;;;;;;5008469;28;20069;-66
2024/01/07 11:57:52;;;;;;;1.63;1.13;;;8.40;99.90;;;;;;5011272;28;20124;-66
2024/01/07 12:00:17;;;;;;;4.03;2.30;;;8.40;99.90;;;;;;5018112;28;20033;-65
2024/01/07 12:02:43;;;;;;;3.33;1.90;;;8.40;99.90;;;;;;4992028;28;20041;-64
2024/01/07 12:05:09;;;;;;;1.50;1.13;;;8.50;99.90;;;;;;5011378;28;20159;-64
2024/01/07 12:07:36;;;;;;;11.73;1.80;;;8.50;99.90;;;;;;5005783;28;20510;-64
2024/01/07 12:10:03;;;;;;;8.00;2.20;;;8.50;99.90;;;;;;5008561;28;20033;-64
2024/01/07 12:12:29;;;;;;;2.25;1.10;;;8.60;99.90;;;;;;5014651;28;20605;-65
2024/01/07 12:14:56;;;;;;;1.65;1.48;;;8.60;99.90;;;;;;5016325;28;20321;-65
2024/01/07 12:17:21;;;;;;;1.58;1.10;;;8.60;99.90;;;;;;5013763;28;20022;-65
2024/01/07 12:19:47;;;;;;;2.03;1.50;;;8.60;99.90;;;;;;5017369;28;20033;-65
2024/01/07 12:22:13;;;;;;;1.77;0.98;;;8.60;99.90;;;;;;5014300;28;20547;-66
2024/01/07 12:24:38;;;;;;;1.35;1.25;;;8.60;99.90;;;;;;5014549;28;20029;-66
2024/01/07 12:27:05;;;;;;;0.40;0.40;;;8.60;99.90;;;;;;5009406;28;20021;-65
2024/01/07 12:29:31;;;;;;;0.55;0.40;;;8.60;99.90;;;;;;5011639;28;20487;-66
2024/01/07 12:31:56;;;;;;;1.38;0.50;;;8.60;99.90;;;;;;5016075;28;20040;-65
2024/01/07 12:34:25;;;;;;;0.80;0.80;;;8.60;99.90;;;;;;5000080;28;20033;-66
2024/01/07 12:36:51;;;;;;;0.90;0.50;;;8.70;99.90;;;;;;5013466;28;20037;-66
2024/01/07 12:39:17;;;;;;;2.97;1.27;;;8.70;99.90;;;;;;5014857;28;20117;-66
2024/01/07 12:41:43;;;;;;;0.82;0.70;;;8.70;99.90;;;;;;5013545;28;20084;-67
2024/01/07 12:44:09;;;;;;;3.30;1.20;;;8.70;99.90;;;;;;5011452;28;20779;-65
2024/01/07 12:46:34;;;;;;;1.63;1.10;;;8.70;99.90;;;;;;5011136;28;20021;-65
2024/01/07 12:49:00;;;;;;;1.80;0.98;;;8.70;99.90;;;;;;5016632;28;20044;-65